Southern Lily — 9VJK4 — position and weather

sailwx.info

Track history (hours):
 
Tides and Currents Weather Stations Pressure Air Temp Water Temp Dewpoint Dewpoint Depression Visibility Wind Speed Wind Dir Waves Ship Positions

Southern Lily

Last reported at 2018-Apr-19 09:03 UTC. Time now 2018-Apr-26 15:33 UTC.
Position S 36°18' E 174°59'.

Length 146 m; draft 8.2 m.

Type: Ship (hazmat cat D). MMSI: 565050000.

Date/timePositionNaut miles runAvg speedWind from/ knotsBaromVisibWave heightAir tempDewpointWater temp
2018-Apr-19 09:03S 36°18' E 174°59'1 8.0
2018-Apr-19 08:54S 36°19' E 174°59'3 8.0
2018-Apr-19 08:30S 36°22' E 174°59'4 7.9
2018-Apr-19 08:00S 36°26' E 174°60'4 8.0
2018-Apr-19 07:29S 36°31' E 174°59'5 8.1
2018-Apr-19 06:55S 36°35' E 174°58'3 8.0
2018-Apr-19 06:30S 36°38' E 174°56'5 8.3
2018-Apr-19 05:55S 36°42' E 174°53'10 0.6
2018-Apr-18 14:28S 36°51' E 174°47'0 0.0
2018-Apr-18 14:00S 36°51' E 174°47'0 0.0
2018-Apr-18 13:30S 36°51' E 174°47'0 0.0
2018-Apr-18 13:00S 36°51' E 174°47'0 0.1
2018-Apr-18 12:30S 36°51' E 174°47'0 0.1
2018-Apr-18 12:00S 36°51' E 174°47'0 0.1
2018-Apr-18 11:30S 36°51' E 174°47'0 0.1
2018-Apr-18 11:00S 36°51' E 174°47'0 0.0
2018-Apr-18 10:30S 36°51' E 174°47'0 0.1
2018-Apr-18 10:00S 36°51' E 174°47'0 0.1
2018-Apr-18 09:30S 36°51' E 174°47'0 0.0
2018-Apr-18 09:00S 36°51' E 174°47'0 0.0
2018-Apr-18 08:30S 36°51' E 174°47'0 0.1
2018-Apr-18 08:00S 36°51' E 174°47'0 0.0
2018-Apr-18 07:30S 36°51' E 174°47'0 0.1
2018-Apr-18 07:00S 36°51' E 174°47'0 0.0
2018-Apr-18 06:30S 36°51' E 174°47'0 0.0
2018-Apr-18 06:00S 36°51' E 174°47'0 0.0
2018-Apr-18 05:30S 36°51' E 174°47'0 0.0
2018-Apr-18 05:00S 36°51' E 174°47'0 0.0
2018-Apr-18 04:30S 36°51' E 174°47'0 0.0
2018-Apr-18 04:00S 36°51' E 174°47'0 0.0
2018-Apr-18 03:30S 36°51' E 174°47'0 0.0
2018-Apr-18 03:00S 36°51' E 174°47'0 0.0
2018-Apr-18 02:30S 36°51' E 174°47'0 0.0
2018-Apr-18 02:00S 36°51' E 174°47'0 0.0
2018-Apr-18 01:30S 36°51' E 174°47'0 0.0
2018-Apr-18 01:00S 36°51' E 174°47'0 0.0
2018-Apr-18 00:30S 36°51' E 174°47'0 0.0
2018-Apr-18 00:00S 36°51' E 174°47'0 0.0
2018-Apr-17 23:30S 36°51' E 174°47'0 0.0
2018-Apr-17 23:00S 36°51' E 174°47'0 0.0
2018-Apr-17 22:30S 36°51' E 174°47'0 0.0
2018-Apr-17 22:00S 36°51' E 174°47'0 0.0
2018-Apr-17 21:30S 36°51' E 174°47'0 0.0
2018-Apr-17 21:00S 36°51' E 174°47'0 0.0
2018-Apr-17 20:30S 36°51' E 174°47'0 0.0
2018-Apr-17 20:00S 36°51' E 174°47'0 0.0
2018-Apr-17 19:30S 36°51' E 174°47'0 0.0
2018-Apr-17 19:00S 36°51' E 174°47'0 0.1
2018-Apr-17 18:30S 36°51' E 174°47'0 0.1
2018-Apr-17 18:00S 36°51' E 174°47'0 0.0
2018-Apr-17 17:30S 36°51' E 174°47'0 0.0
2018-Apr-17 17:00S 36°51' E 174°47'0 0.0
2018-Apr-17 16:30S 36°51' E 174°47'0 0.0
2018-Apr-17 16:00S 36°51' E 174°47'0 0.0
2018-Apr-17 15:30S 36°51' E 174°47'0 0.0
2018-Apr-17 15:00S 36°51' E 174°47'0 0.0
2018-Apr-17 14:30S 36°51' E 174°47'1 1.5
2018-Apr-17 14:00S 36°50' E 174°48'4 7.1
2018-Apr-17 13:30S 36°47' E 174°48'3 6.9
2018-Apr-17 13:00S 36°44' E 174°51'0 0.3
2018-Apr-17 12:25S 36°44' E 174°51'0 0.2
2018-Apr-17 11:56S 36°44' E 174°52'0 0.0
2018-Apr-17 11:26S 36°44' E 174°52'0 0.0
2018-Apr-17 10:44S 36°44' E 174°52'0 0.1
2018-Apr-17 10:26S 36°44' E 174°52'0 0.1
2018-Apr-17 09:56S 36°44' E 174°52'0 0.0
2018-Apr-17 09:26S 36°44' E 174°52'0 0.0
2018-Apr-17 08:56S 36°44' E 174°52'0 0.0
2018-Apr-17 08:26S 36°44' E 174°52'0 0.0
2018-Apr-17 07:56S 36°44' E 174°52'0 0.0
2018-Apr-17 07:26S 36°44' E 174°52'0 0.0
2018-Apr-17 06:56S 36°44' E 174°52'0 0.0
2018-Apr-17 06:26S 36°44' E 174°52'0 0.0
2018-Apr-17 05:56S 36°44' E 174°52'0 0.0
2018-Apr-17 05:26S 36°44' E 174°52'0 0.0
2018-Apr-17 04:56S 36°44' E 174°52'0 0.0
2018-Apr-17 04:26S 36°44' E 174°52'0 0.0
2018-Apr-17 03:56S 36°44' E 174°52'0 0.0
2018-Apr-17 03:26S 36°44' E 174°52'0 0.0
2018-Apr-17 02:56S 36°44' E 174°52'0 0.0
2018-Apr-17 02:26S 36°44' E 174°52'0 0.0
2018-Apr-17 01:56S 36°44' E 174°52'0 0.0
2018-Apr-17 01:26S 36°44' E 174°52'0 0.0
2018-Apr-17 00:56S 36°44' E 174°52'0 0.0
2018-Apr-17 00:26S 36°44' E 174°52'0 0.0
2018-Apr-16 23:56S 36°44' E 174°52'0 0.0
2018-Apr-16 23:26S 36°44' E 174°52'0 0.0
2018-Apr-16 22:56S 36°44' E 174°52'0 0.0
2018-Apr-16 22:26S 36°44' E 174°52'0 0.0
2018-Apr-16 21:56S 36°44' E 174°52'0 0.0
2018-Apr-16 21:26S 36°44' E 174°52'0 0.0
2018-Apr-16 20:56S 36°44' E 174°52'0 0.0
2018-Apr-16 20:26S 36°44' E 174°52'0 0.0
2018-Apr-16 19:56S 36°44' E 174°52'0 0.0
2018-Apr-16 19:26S 36°44' E 174°52'0 0.0
2018-Apr-16 18:56S 36°44' E 174°52'0 0.0
2018-Apr-16 18:26S 36°44' E 174°52'0 0.0
2018-Apr-16 17:56S 36°44' E 174°52'0 0.1
2018-Apr-16 17:26S 36°44' E 174°51'0 0.1
2018-Apr-16 16:56S 36°44' E 174°52'0 0.1
2018-Apr-16 16:26S 36°44' E 174°51'0 0.1
2018-Apr-16 15:56S 36°44' E 174°52'0 0.0
2018-Apr-16 15:26S 36°44' E 174°52'0 0.0
2018-Apr-16 14:56S 36°44' E 174°52'0 0.0
2018-Apr-16 14:26S 36°44' E 174°52'0 0.0
2018-Apr-16 13:56S 36°44' E 174°52'0 0.1
2018-Apr-16 13:30S 36°44' E 174°52'0 0.0
2018-Apr-16 12:59S 36°44' E 174°52'0 0.1
2018-Apr-16 12:29S 36°44' E 174°52'0 1.0
2018-Apr-16 12:01S 36°44' E 174°52'4 7.1
2018-Apr-16 11:30S 36°41' E 174°54'4 7.8
2018-Apr-16 10:59S 36°37' E 174°57'4 8.1
2018-Apr-16 10:30S 36°34' E 174°59'4 8.5
2018-Apr-16 10:01S 36°30' E 174°60'4 8.6
2018-Apr-16 09:31S 36°25' E 174°60'4 8.9
2018-Apr-16 09:01S 36°21' E 174°59'5 9.1
2018-Apr-16 08:31S 36°16' E 174°58'5 9.3
2018-Apr-16 08:01S 36°12' E 174°58'  
Track history (hours):
 
Tides and Currents Weather Stations Pressure Air Temp Water Temp Dewpoint Dewpoint Depression Visibility Wind Speed Wind Dir Waves Ship Positions

Southern Lily

Last reported at 2018-Apr-19 09:03 UTC. Time now 2018-Apr-26 15:33 UTC.
Position S 36°18' E 174°59'.

Length 146 m; draft 8.2 m.

Type: Ship (hazmat cat D). MMSI: 565050000.

Date/timePositionNaut miles runAvg speedWind from/ knotsBaromVisibWave heightAir tempDewpointWater temp
2018-Apr-19 09:03S 36°18' E 174°59'1 8.0
2018-Apr-19 08:54S 36°19' E 174°59'3 8.0
2018-Apr-19 08:30S 36°22' E 174°59'4 7.9
2018-Apr-19 08:00S 36°26' E 174°60'4 8.0
2018-Apr-19 07:29S 36°31' E 174°59'5 8.1
2018-Apr-19 06:55S 36°35' E 174°58'3 8.0
2018-Apr-19 06:30S 36°38' E 174°56'5 8.3
2018-Apr-19 05:55S 36°42' E 174°53'10 0.6
2018-Apr-18 14:28S 36°51' E 174°47'0 0.0
2018-Apr-18 14:00S 36°51' E 174°47'0 0.0
2018-Apr-18 13:30S 36°51' E 174°47'0 0.0
2018-Apr-18 13:00S 36°51' E 174°47'0 0.1
2018-Apr-18 12:30S 36°51' E 174°47'0 0.1
2018-Apr-18 12:00S 36°51' E 174°47'0 0.1
2018-Apr-18 11:30S 36°51' E 174°47'0 0.1
2018-Apr-18 11:00S 36°51' E 174°47'0 0.0
2018-Apr-18 10:30S 36°51' E 174°47'0 0.1
2018-Apr-18 10:00S 36°51' E 174°47'0 0.1
2018-Apr-18 09:30S 36°51' E 174°47'0 0.0
2018-Apr-18 09:00S 36°51' E 174°47'0 0.0
2018-Apr-18 08:30S 36°51' E 174°47'0 0.1
2018-Apr-18 08:00S 36°51' E 174°47'0 0.0
2018-Apr-18 07:30S 36°51' E 174°47'0 0.1
2018-Apr-18 07:00S 36°51' E 174°47'0 0.0
2018-Apr-18 06:30S 36°51' E 174°47'0 0.0
2018-Apr-18 06:00S 36°51' E 174°47'0 0.0
2018-Apr-18 05:30S 36°51' E 174°47'0 0.0
2018-Apr-18 05:00S 36°51' E 174°47'0 0.0
2018-Apr-18 04:30S 36°51' E 174°47'0 0.0
2018-Apr-18 04:00S 36°51' E 174°47'0 0.0
2018-Apr-18 03:30S 36°51' E 174°47'0 0.0
2018-Apr-18 03:00S 36°51' E 174°47'0 0.0
2018-Apr-18 02:30S 36°51' E 174°47'0 0.0
2018-Apr-18 02:00S 36°51' E 174°47'0 0.0
2018-Apr-18 01:30S 36°51' E 174°47'0 0.0
2018-Apr-18 01:00S 36°51' E 174°47'0 0.0
2018-Apr-18 00:30S 36°51' E 174°47'0 0.0
2018-Apr-18 00:00S 36°51' E 174°47'0 0.0
2018-Apr-17 23:30S 36°51' E 174°47'0 0.0
2018-Apr-17 23:00S 36°51' E 174°47'0 0.0
2018-Apr-17 22:30S 36°51' E 174°47'0 0.0
2018-Apr-17 22:00S 36°51' E 174°47'0 0.0
2018-Apr-17 21:30S 36°51' E 174°47'0 0.0
2018-Apr-17 21:00S 36°51' E 174°47'0 0.0
2018-Apr-17 20:30S 36°51' E 174°47'0 0.0
2018-Apr-17 20:00S 36°51' E 174°47'0 0.0
2018-Apr-17 19:30S 36°51' E 174°47'0 0.0
2018-Apr-17 19:00S 36°51' E 174°47'0 0.1
2018-Apr-17 18:30S 36°51' E 174°47'0 0.1
2018-Apr-17 18:00S 36°51' E 174°47'0 0.0
2018-Apr-17 17:30S 36°51' E 174°47'0 0.0
2018-Apr-17 17:00S 36°51' E 174°47'0 0.0
2018-Apr-17 16:30S 36°51' E 174°47'0 0.0
2018-Apr-17 16:00S 36°51' E 174°47'0 0.0
2018-Apr-17 15:30S 36°51' E 174°47'0 0.0
2018-Apr-17 15:00S 36°51' E 174°47'0 0.0
2018-Apr-17 14:30S 36°51' E 174°47'1 1.5
2018-Apr-17 14:00S 36°50' E 174°48'4 7.1
2018-Apr-17 13:30S 36°47' E 174°48'3 6.9
2018-Apr-17 13:00S 36°44' E 174°51'0 0.3
2018-Apr-17 12:25S 36°44' E 174°51'0 0.2
2018-Apr-17 11:56S 36°44' E 174°52'0 0.0
2018-Apr-17 11:26S 36°44' E 174°52'0 0.0
2018-Apr-17 10:44S 36°44' E 174°52'0 0.1
2018-Apr-17 10:26S 36°44' E 174°52'0 0.1
2018-Apr-17 09:56S 36°44' E 174°52'0 0.0
2018-Apr-17 09:26S 36°44' E 174°52'0 0.0
2018-Apr-17 08:56S 36°44' E 174°52'0 0.0
2018-Apr-17 08:26S 36°44' E 174°52'0 0.0
2018-Apr-17 07:56S 36°44' E 174°52'0 0.0
2018-Apr-17 07:26S 36°44' E 174°52'0 0.0
2018-Apr-17 06:56S 36°44' E 174°52'0 0.0
2018-Apr-17 06:26S 36°44' E 174°52'0 0.0
2018-Apr-17 05:56S 36°44' E 174°52'0 0.0
2018-Apr-17 05:26S 36°44' E 174°52'0 0.0
2018-Apr-17 04:56S 36°44' E 174°52'0 0.0
2018-Apr-17 04:26S 36°44' E 174°52'0 0.0
2018-Apr-17 03:56S 36°44' E 174°52'0 0.0
2018-Apr-17 03:26S 36°44' E 174°52'0 0.0
2018-Apr-17 02:56S 36°44' E 174°52'0 0.0
2018-Apr-17 02:26S 36°44' E 174°52'0 0.0
2018-Apr-17 01:56S 36°44' E 174°52'0 0.0
2018-Apr-17 01:26S 36°44' E 174°52'0 0.0
2018-Apr-17 00:56S 36°44' E 174°52'0 0.0
2018-Apr-17 00:26S 36°44' E 174°52'0 0.0
2018-Apr-16 23:56S 36°44' E 174°52'0 0.0
2018-Apr-16 23:26S 36°44' E 174°52'0 0.0
2018-Apr-16 22:56S 36°44' E 174°52'0 0.0
2018-Apr-16 22:26S 36°44' E 174°52'0 0.0
2018-Apr-16 21:56S 36°44' E 174°52'0 0.0
2018-Apr-16 21:26S 36°44' E 174°52'0 0.0
2018-Apr-16 20:56S 36°44' E 174°52'0 0.0
2018-Apr-16 20:26S 36°44' E 174°52'0 0.0
2018-Apr-16 19:56S 36°44' E 174°52'0 0.0
2018-Apr-16 19:26S 36°44' E 174°52'0 0.0
2018-Apr-16 18:56S 36°44' E 174°52'0 0.0
2018-Apr-16 18:26S 36°44' E 174°52'0 0.0
2018-Apr-16 17:56S 36°44' E 174°52'0 0.1
2018-Apr-16 17:26S 36°44' E 174°51'0 0.1
2018-Apr-16 16:56S 36°44' E 174°52'0 0.1
2018-Apr-16 16:26S 36°44' E 174°51'0 0.1
2018-Apr-16 15:56S 36°44' E 174°52'0 0.0
2018-Apr-16 15:26S 36°44' E 174°52'0 0.0
2018-Apr-16 14:56S 36°44' E 174°52'0 0.0
2018-Apr-16 14:26S 36°44' E 174°52'0 0.0
2018-Apr-16 13:56S 36°44' E 174°52'0 0.1
2018-Apr-16 13:30S 36°44' E 174°52'0 0.0
2018-Apr-16 12:59S 36°44' E 174°52'0 0.1
2018-Apr-16 12:29S 36°44' E 174°52'0 1.0
2018-Apr-16 12:01S 36°44' E 174°52'4 7.1
2018-Apr-16 11:30S 36°41' E 174°54'4 7.8
2018-Apr-16 10:59S 36°37' E 174°57'4 8.1
2018-Apr-16 10:30S 36°34' E 174°59'4 8.5
2018-Apr-16 10:01S 36°30' E 174°60'4 8.6
2018-Apr-16 09:31S 36°25' E 174°60'4 8.9
2018-Apr-16 09:01S 36°21' E 174°59'5 9.1
2018-Apr-16 08:31S 36°16' E 174°58'5 9.3
2018-Apr-16 08:01S 36°12' E 174°58'  

Dump ship's entire track history